createdAt,value
2018-12-21T00:00:06.610Z,79.66
2018-12-21T00:00:45.056Z,79.53
2018-12-21T00:01:23.432Z,80.13
2018-12-21T00:02:00.523Z,78.96
2018-12-21T00:02:38.092Z,78.75
2018-12-21T00:03:15.449Z,79.93
2018-12-21T00:03:54.213Z,79.23
2018-12-21T00:04:31.872Z,79.11
2018-12-21T00:05:09.403Z,79.45
2018-12-21T00:05:46.724Z,78.46
2018-12-21T00:06:24.616Z,79.53
2018-12-21T00:07:03.248Z,79.19
2018-12-21T00:07:40.403Z,79.18
2018-12-21T00:08:17.848Z,78.56
2018-12-21T00:08:55.305Z,79.72
2018-12-21T00:09:32.816Z,78.96
2018-12-21T00:10:10.093Z,79.41
2018-12-21T00:10:47.390Z,79.33
2018-12-21T00:11:25.785Z,78.74
2018-12-21T00:12:03.322Z,78.16
2018-12-21T00:12:40.476Z,79.08
2018-12-21T00:13:17.882Z,78.53
2018-12-21T00:13:55.180Z,78.77
2018-12-21T00:14:33.567Z,77.68
2018-12-21T00:15:10.814Z,77.26
2018-12-21T00:15:49.319Z,77.93
2018-12-21T00:16:26.760Z,77.00
2018-12-21T00:17:04.204Z,76.95
2018-12-21T00:17:42.072Z,77.42
2018-12-21T00:18:19.316Z,76.43
2018-12-21T00:18:56.471Z,75.67
2018-12-21T00:19:33.807Z,76.02
2018-12-21T00:20:12.100Z,75.91
2018-12-21T00:20:50.296Z,74.54
2018-12-21T00:21:27.543Z,74.73
2018-12-21T00:22:05.002Z,74.67
2018-12-21T00:22:42.869Z,74.87
2018-12-21T00:23:20.036Z,75.17
2018-12-21T00:23:57.692Z,75.20
2018-12-21T00:24:36.223Z,74.33
2018-12-21T00:25:13.603Z,74.26
2018-12-21T00:25:51.141Z,74.89
2018-12-21T00:26:28.440Z,74.98
2018-12-21T00:27:06.045Z,74.30
2018-12-21T00:27:44.633Z,74.28
2018-12-21T00:28:23.061Z,74.62
2018-12-21T00:29:00.060Z,74.51
2018-12-21T00:29:37.114Z,75.08
2018-12-21T00:30:20.753Z,74.69
2018-12-21T00:31:02.518Z,74.23
2018-12-21T00:31:44.582Z,74.82
2018-12-21T00:32:26.513Z,74.27
2018-12-21T00:33:10.505Z,74.55
2018-12-21T00:33:53.520Z,73.91
2018-12-21T00:34:35.449Z,73.32
2018-12-21T00:35:17.308Z,73.44
2018-12-21T00:35:59.457Z,73.96
2018-12-21T00:36:41.536Z,73.55
2018-12-21T00:37:23.849Z,73.25
2018-12-21T00:38:05.848Z,72.91
2018-12-21T00:38:47.837Z,72.69
2018-12-21T00:39:29.699Z,72.77
2018-12-21T00:40:14.004Z,72.16
2018-12-21T00:40:55.878Z,72.58
2018-12-21T00:41:31.836Z,72.87
2018-12-21T00:42:12.099Z,73.09
2018-12-21T00:42:57.809Z,72.22
2018-12-21T00:43:41.908Z,72.01
2018-12-21T00:44:50.204Z,72.29
2018-12-21T00:45:31.391Z,72.95
2018-12-21T00:46:15.912Z,72.66
2018-12-21T00:46:54.907Z,72.18
2018-12-21T00:47:33.174Z,71.81
2018-12-21T00:48:10.754Z,71.71
2018-12-21T00:48:49.257Z,71.88
2018-12-21T00:49:28.503Z,71.98
2018-12-21T00:50:06.829Z,72.00
2018-12-21T00:50:44.066Z,71.16
2018-12-21T00:51:21.510Z,71.92
2018-12-21T00:51:59.349Z,71.77
2018-12-21T00:52:37.784Z,71.46
2018-12-21T00:53:15.981Z,70.96
2018-12-21T00:53:53.325Z,70.79
2018-12-21T00:54:30.530Z,70.81
2018-12-21T00:55:08.349Z,70.76
2018-12-21T00:55:46.405Z,70.59
2018-12-21T00:56:24.801Z,71.52
2018-12-21T00:57:02.695Z,70.68
2018-12-21T00:57:40.790Z,71.68
2018-12-21T00:58:18.218Z,71.15
2018-12-21T00:58:56.593Z,71.06
2018-12-21T00:59:34.102Z,70.37
2018-12-21T01:00:13.096Z,69.18
2018-12-21T01:00:50.657Z,68.78
2018-12-21T01:01:30.338Z,68.99
2018-12-21T01:02:08.130Z,68.57
2018-12-21T01:02:46.403Z,69.00
2018-12-21T01:03:24.146Z,68.45
2018-12-21T01:04:01.801Z,68.79
2018-12-21T01:04:39.189Z,68.35
2018-12-21T01:05:16.616Z,68.78
2018-12-21T01:05:54.275Z,68.00
2018-12-21T01:06:31.537Z,68.04
2018-12-21T01:07:08.837Z,68.11
2018-12-21T01:07:46.277Z,68.65
2018-12-21T01:08:23.567Z,67.45
2018-12-21T01:09:00.857Z,67.53
2018-12-21T01:09:38.461Z,67.38
2018-12-21T01:10:15.992Z,66.93
2018-12-21T01:10:53.428Z,66.90
2018-12-21T01:11:31.780Z,66.84
2018-12-21T01:12:10.237Z,66.57
2018-12-21T01:12:49.002Z,66.77
2018-12-21T01:13:26.543Z,66.05
2018-12-21T01:14:04.079Z,66.32
2018-12-21T01:14:41.693Z,65.81
2018-12-21T01:15:19.264Z,65.93
2018-12-21T01:15:56.532Z,65.34
2018-12-21T01:16:34.093Z,65.64
2018-12-21T01:17:11.702Z,65.50
2018-12-21T01:17:49.160Z,65.67
2018-12-21T01:18:27.319Z,65.21
2018-12-21T01:19:04.732Z,65.10
2018-12-21T01:19:42.051Z,65.24
2018-12-21T01:20:19.571Z,65.23
2018-12-21T01:20:56.828Z,65.47
2018-12-21T01:21:38.911Z,65.41
2018-12-21T01:22:15.537Z,65.34
2018-12-21T01:22:52.995Z,65.33
2018-12-21T01:23:31.681Z,64.75
2018-12-21T01:24:09.843Z,64.52
2018-12-21T01:24:47.199Z,64.67
2018-12-21T01:25:26.124Z,63.93
2018-12-21T01:26:03.690Z,64.13
2018-12-21T01:26:41.192Z,63.97
2018-12-21T01:27:18.273Z,64.01
2018-12-21T01:27:55.648Z,63.89
2018-12-21T01:28:33.936Z,63.90
2018-12-21T01:29:11.380Z,63.95
2018-12-21T01:29:48.471Z,63.93
2018-12-21T01:30:26.360Z,63.55
2018-12-21T01:31:03.840Z,63.14
2018-12-21T01:31:41.092Z,63.39
2018-12-21T01:32:18.808Z,63.59
2018-12-21T01:32:56.276Z,63.72
2018-12-21T01:33:33.732Z,63.41
2018-12-21T01:34:10.995Z,63.56
2018-12-21T01:34:48.250Z,63.47
2018-12-21T01:35:25.472Z,63.02
2018-12-21T01:36:02.557Z,62.67
2018-12-21T01:36:40.129Z,62.44
2018-12-21T01:37:17.465Z,62.30
2018-12-21T01:37:54.565Z,62.09
2018-12-21T01:38:31.687Z,62.29
2018-12-21T01:39:09.602Z,62.05
2018-12-21T01:39:47.074Z,62.19
2018-12-21T01:40:24.356Z,62.09
2018-12-21T01:41:01.564Z,62.06
2018-12-21T01:41:39.264Z,62.30
2018-12-21T01:42:16.433Z,61.87
2018-12-21T01:42:53.937Z,61.92
2018-12-21T01:43:31.361Z,61.75
2018-12-21T01:44:09.245Z,61.86
2018-12-21T01:44:46.717Z,61.68
2018-12-21T01:45:23.812Z,61.38
2018-12-21T01:46:00.932Z,61.22
2018-12-21T01:46:40.087Z,60.67
2018-12-21T01:47:17.534Z,60.61
2018-12-21T01:47:55.084Z,60.15
2018-12-21T01:48:32.353Z,60.30
2018-12-21T01:49:10.939Z,60.14
2018-12-21T01:49:48.548Z,60.58
2018-12-21T01:50:26.074Z,60.86
2018-12-21T01:51:03.437Z,60.87
2018-12-21T01:51:47.113Z,60.41
2018-12-21T01:52:21.440Z,60.31
2018-12-21T01:52:58.810Z,60.25
2018-12-21T01:53:36.460Z,60.10
2018-12-21T01:54:13.477Z,60.22
2018-12-21T01:54:50.922Z,59.96
2018-12-21T01:55:28.512Z,59.72
2018-12-21T01:56:05.978Z,59.39
2018-12-21T01:56:43.212Z,59.61
2018-12-21T01:57:20.773Z,59.63
2018-12-21T01:57:58.180Z,59.75
2018-12-21T01:58:36.079Z,59.93
2018-12-21T01:59:13.385Z,59.78
2018-12-21T01:59:50.712Z,59.52
2018-12-21T02:00:28.388Z,59.28
2018-12-21T02:01:06.989Z,59.59
2018-12-21T02:01:44.799Z,59.32
2018-12-21T02:02:22.311Z,59.27
2018-12-21T02:02:59.691Z,59.36
2018-12-21T02:03:37.349Z,59.27
2018-12-21T02:04:14.849Z,58.78
2018-12-21T02:04:52.540Z,59.13
2018-12-21T02:05:29.899Z,58.82
2018-12-21T02:06:07.336Z,58.94
2018-12-21T02:06:45.032Z,59.42
2018-12-21T02:07:22.784Z,59.22
2018-12-21T02:08:00.305Z,59.10
2018-12-21T02:08:37.717Z,58.82
2018-12-21T02:09:14.837Z,58.56
2018-12-21T02:09:52.328Z,58.81
2018-12-21T02:10:29.702Z,58.48
2018-12-21T02:11:07.891Z,58.11
2018-12-21T02:11:45.332Z,58.16
2018-12-21T02:12:23.474Z,58.20
2018-12-21T02:13:00.996Z,58.38
2018-12-21T02:13:38.340Z,58.22
2018-12-21T02:14:15.651Z,58.11
2018-12-21T02:14:53.159Z,57.65
2018-12-21T02:15:30.500Z,57.77
2018-12-21T02:16:07.973Z,57.86
2018-12-21T02:16:45.241Z,58.11
2018-12-21T02:17:22.831Z,57.97
2018-12-21T02:18:00.205Z,57.81
2018-12-21T02:18:38.840Z,57.94
2018-12-21T02:19:16.309Z,58.02
2018-12-21T02:19:54.597Z,58.27
2018-12-21T02:20:31.777Z,57.93
2018-12-21T02:21:09.409Z,58.32
2018-12-21T02:21:46.856Z,58.42
2018-12-21T02:22:27.374Z,58.47
2018-12-21T02:23:04.756Z,58.40
2018-12-21T02:23:42.453Z,58.51
2018-12-21T02:24:20.231Z,58.02
2018-12-21T02:24:57.541Z,57.86
2018-12-21T02:25:35.926Z,57.72
2018-12-21T02:26:13.109Z,57.71
2018-12-21T02:26:50.562Z,57.87
2018-12-21T02:27:28.774Z,57.96
2018-12-21T02:28:06.402Z,57.93
2018-12-21T02:28:43.916Z,57.51
2018-12-21T02:29:21.984Z,57.49
2018-12-21T02:29:59.429Z,57.25
2018-12-21T02:30:36.497Z,56.98
2018-12-21T02:31:14.673Z,57.10
2018-12-21T02:31:52.194Z,57.18
2018-12-21T02:32:29.593Z,56.76
2018-12-21T02:33:07.180Z,57.08
2018-12-21T02:33:44.474Z,57.04
2018-12-21T02:34:21.982Z,57.19
2018-12-21T02:34:59.735Z,57.15
2018-12-21T02:35:38.040Z,57.43
2018-12-21T02:36:15.004Z,57.74
2018-12-21T02:36:52.380Z,57.32
2018-12-21T02:37:30.038Z,57.17
2018-12-21T02:38:08.445Z,57.31
2018-12-21T02:38:45.552Z,57.54
2018-12-21T02:39:22.723Z,57.62
2018-12-21T02:40:00.256Z,57.26
2018-12-21T02:40:37.798Z,57.53
2018-12-21T02:41:15.223Z,57.06
2018-12-21T02:41:53.195Z,57.36
2018-12-21T02:42:30.859Z,57.85
2018-12-21T02:43:08.870Z,57.40
2018-12-21T02:43:46.293Z,57.84
2018-12-21T02:44:24.478Z,57.86
2018-12-21T02:45:01.673Z,58.03
2018-12-21T02:45:39.258Z,57.49
2018-12-21T02:46:17.549Z,56.66
2018-12-21T02:46:55.121Z,56.84
2018-12-21T02:47:32.646Z,57.00
2018-12-21T02:48:10.511Z,56.89
2018-12-21T02:48:48.480Z,56.53
2018-12-21T02:49:25.926Z,56.38
2018-12-21T02:50:03.191Z,56.86
2018-12-21T02:50:40.778Z,56.64
2018-12-21T02:51:17.909Z,57.05
2018-12-21T02:52:05.097Z,56.78
2018-12-21T02:52:35.017Z,56.54
2018-12-21T02:53:12.341Z,56.72
2018-12-21T02:53:50.645Z,57.18
2018-12-21T02:54:28.451Z,57.11
2018-12-21T02:55:05.846Z,56.21
2018-12-21T02:55:43.287Z,57.06
2018-12-21T02:56:21.682Z,56.18
2018-12-21T02:56:59.309Z,56.55
2018-12-21T02:57:37.536Z,55.53
2018-12-21T02:58:17.509Z,55.98
2018-12-21T02:58:55.012Z,55.58
2018-12-21T02:59:32.477Z,55.85
2018-12-21T03:00:10.924Z,55.59
2018-12-21T03:00:49.448Z,55.92
2018-12-21T03:01:26.599Z,55.92
2018-12-21T03:02:04.058Z,56.30
2018-12-21T03:02:41.485Z,55.79
2018-12-21T03:03:18.986Z,55.84
2018-12-21T03:03:56.456Z,56.22
2018-12-21T03:04:34.006Z,56.58
2018-12-21T03:05:11.989Z,56.68
2018-12-21T03:05:49.236Z,56.98
2018-12-21T03:06:26.713Z,56.31
2018-12-21T03:07:04.073Z,57.00
2018-12-21T03:07:41.446Z,56.73
2018-12-21T03:08:19.718Z,56.71
2018-12-21T03:08:57.121Z,56.38
2018-12-21T03:09:35.158Z,56.40
2018-12-21T03:10:12.402Z,56.52
2018-12-21T03:10:49.908Z,56.87
2018-12-21T03:11:29.622Z,56.84
2018-12-21T03:12:07.097Z,56.44
2018-12-21T03:12:45.457Z,57.10
2018-12-21T03:13:23.044Z,57.23
2018-12-21T03:14:00.121Z,57.35
2018-12-21T03:14:37.817Z,56.23
2018-12-21T03:15:15.220Z,56.56
2018-12-21T03:15:52.576Z,56.24
2018-12-21T03:16:30.403Z,56.38
2018-12-21T03:17:07.679Z,56.11
2018-12-21T03:17:44.618Z,56.53
2018-12-21T03:18:22.151Z,56.69
2018-12-21T03:19:00.037Z,57.11
2018-12-21T03:19:37.568Z,56.52
2018-12-21T03:20:15.314Z,56.48
2018-12-21T03:20:53.056Z,56.92
2018-12-21T03:21:30.522Z,57.20
2018-12-21T03:22:14.627Z,56.79
2018-12-21T03:22:47.523Z,56.15
2018-12-21T03:23:24.840Z,55.91
2018-12-21T03:24:03.375Z,55.93
2018-12-21T03:24:41.031Z,55.71
2018-12-21T03:25:19.387Z,55.91
2018-12-21T03:25:56.668Z,55.75
2018-12-21T03:26:34.232Z,56.04
2018-12-21T03:27:11.406Z,55.65
2018-12-21T03:27:48.969Z,54.86
2018-12-21T03:28:26.349Z,55.17
2018-12-21T03:29:03.848Z,54.74
2018-12-21T03:29:40.867Z,55.13
2018-12-21T03:30:18.109Z,55.36
2018-12-21T03:30:55.233Z,55.13
2018-12-21T03:31:32.549Z,55.03
2018-12-21T03:32:10.773Z,56.12
2018-12-21T03:32:48.451Z,55.32
2018-12-21T03:33:28.125Z,55.87
2018-12-21T03:34:05.328Z,55.19
2018-12-21T03:34:42.557Z,56.25
2018-12-21T03:35:20.111Z,55.05
2018-12-21T03:35:57.407Z,55.96
2018-12-21T03:36:34.847Z,55.61
2018-12-21T03:37:12.271Z,55.91
2018-12-21T03:37:49.824Z,56.28
2018-12-21T03:38:27.772Z,55.55
2018-12-21T03:39:05.075Z,56.40
2018-12-21T03:39:43.377Z,56.01
2018-12-21T03:40:21.120Z,55.90
2018-12-21T03:40:58.335Z,56.04
2018-12-21T03:41:35.888Z,55.00
2018-12-21T03:42:13.550Z,55.09
2018-12-21T03:42:51.049Z,56.05
2018-12-21T03:43:28.444Z,56.43
2018-12-21T03:44:05.788Z,56.12
2018-12-21T03:44:45.420Z,56.86
2018-12-21T03:45:22.566Z,56.08
2018-12-21T03:45:59.697Z,57.03
2018-12-21T03:46:36.649Z,56.77
2018-12-21T03:47:14.356Z,56.18
2018-12-21T03:47:51.908Z,56.04
2018-12-21T03:48:30.080Z,56.12
2018-12-21T03:49:08.485Z,56.75
2018-12-21T03:49:46.126Z,55.81
2018-12-21T03:50:23.635Z,55.57
2018-12-21T03:51:00.870Z,54.71
2018-12-21T03:51:39.138Z,55.88
2018-12-21T03:52:24.188Z,55.41
2018-12-21T03:52:57.115Z,56.36
2018-12-21T03:53:34.621Z,55.58
2018-12-21T03:54:12.127Z,56.42
2018-12-21T03:54:50.218Z,55.39
2018-12-21T03:55:28.015Z,56.00
2018-12-21T03:56:05.300Z,55.91
2018-12-21T03:56:43.674Z,56.15
2018-12-21T03:57:20.964Z,56.50
2018-12-21T03:57:58.122Z,56.13
2018-12-21T03:58:35.507Z,57.05
2018-12-21T03:59:12.730Z,56.88
2018-12-21T03:59:50.221Z,56.60
2018-12-21T04:00:27.313Z,56.72
2018-12-21T04:01:04.693Z,56.40
2018-12-21T04:01:41.808Z,56.54
2018-12-21T04:02:20.899Z,56.29
2018-12-21T04:02:59.015Z,57.71
2018-12-21T04:03:37.189Z,57.34
2018-12-21T04:04:15.718Z,57.40
2018-12-21T04:04:53.250Z,56.95
2018-12-21T04:05:30.713Z,56.91
2018-12-21T04:06:07.782Z,57.32
2018-12-21T04:06:46.149Z,57.21
2018-12-21T04:07:23.645Z,56.35
2018-12-21T04:08:01.163Z,56.51
2018-12-21T04:08:38.408Z,56.72
2018-12-21T04:09:15.755Z,56.41
2018-12-21T04:09:53.198Z,57.05
2018-12-21T04:10:30.986Z,56.93
2018-12-21T04:11:07.770Z,56.11
2018-12-21T04:11:44.665Z,56.37
2018-12-21T04:12:21.675Z,56.29
2018-12-21T04:12:59.454Z,56.24
2018-12-21T04:13:37.116Z,56.59
2018-12-21T04:14:14.030Z,57.08
2018-12-21T04:14:54.695Z,57.45
2018-12-21T04:15:31.909Z,57.51
2018-12-21T04:16:08.970Z,57.19
2018-12-21T04:16:45.801Z,57.11
2018-12-21T04:17:22.815Z,57.71
2018-12-21T04:18:00.186Z,57.83
2018-12-21T04:18:37.938Z,57.20
2018-12-21T04:19:15.297Z,56.99
2018-12-21T04:19:53.653Z,56.87
2018-12-21T04:20:30.794Z,57.56
2018-12-21T04:21:07.914Z,56.90
2018-12-21T04:21:46.372Z,57.24
2018-12-21T04:22:33.739Z,56.57
2018-12-21T04:23:03.621Z,56.34
2018-12-21T04:23:41.747Z,56.91
2018-12-21T04:24:19.457Z,56.24
2018-12-21T04:24:56.705Z,55.69
2018-12-21T04:25:34.119Z,56.53
2018-12-21T04:26:11.470Z,56.52
2018-12-21T04:26:48.493Z,56.71
2018-12-21T04:27:25.797Z,56.65
2018-12-21T04:28:04.574Z,57.40
2018-12-21T04:28:42.310Z,57.56
2018-12-21T04:29:19.580Z,57.92
2018-12-21T04:29:56.899Z,57.47
2018-12-21T04:30:34.432Z,56.59
2018-12-21T04:31:11.456Z,56.91
2018-12-21T04:31:51.325Z,58.31
2018-12-21T04:32:28.642Z,58.20
2018-12-21T04:33:05.441Z,57.29
2018-12-21T04:33:42.271Z,57.00
2018-12-21T04:34:19.924Z,56.37
2018-12-21T04:34:56.969Z,56.92
2018-12-21T04:35:34.523Z,56.98
2018-12-21T04:36:12.549Z,56.21
2018-12-21T04:36:50.098Z,56.25
2018-12-21T04:37:27.644Z,56.90
2018-12-21T04:38:05.220Z,57.52
2018-12-21T04:38:42.614Z,57.40
2018-12-21T04:39:19.885Z,57.47
2018-12-21T04:39:57.328Z,57.01
2018-12-21T04:40:34.710Z,58.41
2018-12-21T04:41:12.121Z,57.94
2018-12-21T04:41:49.693Z,58.04
2018-12-21T04:42:27.354Z,57.92
2018-12-21T04:43:04.856Z,58.82
2018-12-21T04:43:42.183Z,59.02
2018-12-21T04:44:20.633Z,58.11
2018-12-21T04:44:57.858Z,58.42
2018-12-21T04:45:35.155Z,58.40
2018-12-21T04:46:12.589Z,57.91
2018-12-21T04:46:50.163Z,58.34
2018-12-21T04:47:27.829Z,58.54
2018-12-21T04:48:05.503Z,58.22
2018-12-21T04:48:43.521Z,57.93
2018-12-21T04:49:21.088Z,58.59
2018-12-21T04:49:58.757Z,58.83
2018-12-21T04:50:37.096Z,58.26
2018-12-21T04:51:14.399Z,58.44
2018-12-21T04:51:52.001Z,58.21
2018-12-21T04:52:29.412Z,57.50
2018-12-21T04:53:06.503Z,57.25
2018-12-21T04:53:44.045Z,57.38
2018-12-21T04:54:21.269Z,57.83
2018-12-21T04:54:58.804Z,57.71
2018-12-21T04:55:36.400Z,57.98
2018-12-21T04:56:13.615Z,57.32
2018-12-21T04:56:50.637Z,57.19
2018-12-21T04:57:28.150Z,57.06
2018-12-21T04:58:05.488Z,57.49
2018-12-21T04:58:43.581Z,58.02
2018-12-21T04:59:20.956Z,58.19
2018-12-21T04:59:59.688Z,57.10
2018-12-21T05:00:36.975Z,56.64
2018-12-21T05:01:14.368Z,56.00
2018-12-21T05:01:51.684Z,56.89
2018-12-21T05:02:29.218Z,57.04
2018-12-21T05:03:06.902Z,56.86
2018-12-21T05:03:45.487Z,56.62
2018-12-21T05:04:22.635Z,55.97
2018-12-21T05:05:00.170Z,56.96
2018-12-21T05:05:39.476Z,56.84
2018-12-21T05:06:18.104Z,56.58
2018-12-21T05:06:56.301Z,55.77
2018-12-21T05:07:34.214Z,55.67
2018-12-21T05:08:11.649Z,55.50
2018-12-21T05:08:48.763Z,55.77
2018-12-21T05:09:26.009Z,56.04
2018-12-21T05:10:03.086Z,55.98
2018-12-21T05:10:40.579Z,55.62
2018-12-21T05:11:19.252Z,55.15
2018-12-21T05:11:56.596Z,56.03
2018-12-21T05:12:34.189Z,54.83
2018-12-21T05:13:11.609Z,54.65
2018-12-21T05:13:48.648Z,54.40
2018-12-21T05:14:26.131Z,54.44
2018-12-21T05:15:03.683Z,54.60
2018-12-21T05:15:40.662Z,54.19
2018-12-21T05:16:18.240Z,54.20
2018-12-21T05:16:55.605Z,54.33
2018-12-21T05:17:33.168Z,53.74
2018-12-21T05:18:10.787Z,53.61
2018-12-21T05:18:47.794Z,54.22
2018-12-21T05:19:26.166Z,54.20
2018-12-21T05:20:03.765Z,54.54
2018-12-21T05:20:41.220Z,54.09
2018-12-21T05:21:18.509Z,54.19
2018-12-21T05:21:55.889Z,54.19
2018-12-21T05:22:33.409Z,53.90
2018-12-21T05:23:10.818Z,53.65
2018-12-21T05:23:47.803Z,54.32
2018-12-21T05:24:25.205Z,53.26
2018-12-21T05:25:02.673Z,53.26
2018-12-21T05:25:39.543Z,53.73
2018-12-21T05:26:17.085Z,54.34
2018-12-21T05:26:54.636Z,53.16
2018-12-21T05:27:31.703Z,53.76
2018-12-21T05:28:09.164Z,53.60
2018-12-21T05:28:48.223Z,53.27
2018-12-21T05:29:26.264Z,53.56
2018-12-21T05:30:04.003Z,52.96
2018-12-21T05:30:41.532Z,52.20
2018-12-21T05:31:27.960Z,52.60
2018-12-21T05:31:58.625Z,52.17
2018-12-21T05:32:35.797Z,53.26
2018-12-21T05:33:13.090Z,52.86
2018-12-21T05:33:50.676Z,52.77
2018-12-21T05:34:27.850Z,53.49
2018-12-21T05:35:05.489Z,52.53
2018-12-21T05:35:42.966Z,53.41
2018-12-21T05:36:20.201Z,52.69
2018-12-21T05:36:57.668Z,53.68
2018-12-21T05:37:35.143Z,53.67
2018-12-21T05:38:13.288Z,52.65
2018-12-21T05:38:50.753Z,52.18
2018-12-21T05:39:28.280Z,53.44
2018-12-21T05:40:05.903Z,51.54
2018-12-21T05:40:43.141Z,51.65
2018-12-21T05:41:20.617Z,52.45
2018-12-21T05:41:58.147Z,52.44
2018-12-21T05:42:35.671Z,53.06
2018-12-21T05:43:13.264Z,52.83
2018-12-21T05:43:50.393Z,53.44
2018-12-21T05:44:27.899Z,52.53
2018-12-21T05:45:05.573Z,52.51
2018-12-21T05:45:43.106Z,52.36
2018-12-21T05:46:20.805Z,52.06
2018-12-21T05:46:57.832Z,52.80
2018-12-21T05:47:34.992Z,52.93
2018-12-21T05:48:12.540Z,52.60
2018-12-21T05:48:49.924Z,53.46
2018-12-21T05:49:27.276Z,52.96
2018-12-21T05:50:04.639Z,53.36
2018-12-21T05:50:42.035Z,52.67
2018-12-21T05:51:19.412Z,53.22
2018-12-21T05:51:57.192Z,52.83
2018-12-21T05:52:34.433Z,53.01
2018-12-21T05:53:11.740Z,52.39
2018-12-21T05:53:49.401Z,52.71
2018-12-21T05:54:26.454Z,52.86
2018-12-21T05:55:04.381Z,53.03
2018-12-21T05:55:41.581Z,53.60
2018-12-21T05:56:18.952Z,53.33
2018-12-21T05:56:56.373Z,53.37
2018-12-21T05:57:34.532Z,52.75
2018-12-21T05:58:12.151Z,51.83
2018-12-21T05:58:49.565Z,51.21
2018-12-21T05:59:28.308Z,51.89
2018-12-21T06:00:06.248Z,50.98
2018-12-21T06:00:43.424Z,52.03
2018-12-21T06:01:21.633Z,51.27
2018-12-21T06:01:58.944Z,52.34
2018-12-21T06:02:36.362Z,51.73
2018-12-21T06:03:13.913Z,51.21
2018-12-21T06:03:52.034Z,51.61
2018-12-21T06:05:12.376Z,52.11
2018-12-21T06:05:49.880Z,52.63
2018-12-21T06:06:27.165Z,53.41
2018-12-21T06:07:04.528Z,52.85
2018-12-21T06:07:41.803Z,53.19
2018-12-21T06:08:19.961Z,53.02
2018-12-21T06:08:57.717Z,52.37
2018-12-21T06:09:35.324Z,52.22
2018-12-21T06:10:12.560Z,51.57
2018-12-21T06:10:49.744Z,51.47
2018-12-21T06:11:27.248Z,50.63
2018-12-21T06:12:04.248Z,51.15
2018-12-21T06:12:41.400Z,50.03
2018-12-21T06:13:19.126Z,50.17
2018-12-21T06:13:57.154Z,50.50
2018-12-21T06:14:35.108Z,49.76
2018-12-21T06:15:12.716Z,49.97
2018-12-21T06:15:50.625Z,49.61
2018-12-21T06:16:27.872Z,49.18
2018-12-21T06:17:05.448Z,49.21
2018-12-21T06:17:42.735Z,49.53
2018-12-21T06:18:20.196Z,49.91
2018-12-21T06:18:57.675Z,50.55
2018-12-21T06:19:34.994Z,51.64
2018-12-21T06:20:12.865Z,51.26
2018-12-21T06:20:50.904Z,51.71
2018-12-21T06:21:30.455Z,51.33
2018-12-21T06:22:07.861Z,50.45
2018-12-21T06:22:45.543Z,49.91
2018-12-21T06:23:23.085Z,49.89
2018-12-21T06:24:00.693Z,50.36
2018-12-21T06:24:38.328Z,50.24
2018-12-21T06:25:15.973Z,49.40
2018-12-21T06:25:53.105Z,49.83
2018-12-21T06:26:31.072Z,50.26
2018-12-21T06:27:08.566Z,49.83
2018-12-21T06:27:46.218Z,50.84
2018-12-21T06:28:24.029Z,51.33
2018-12-21T06:29:01.497Z,50.96
2018-12-21T06:29:39.225Z,50.42
2018-12-21T06:30:16.880Z,49.97
2018-12-21T06:30:53.980Z,50.73
2018-12-21T06:31:31.732Z,50.01
2018-12-21T06:32:09.968Z,50.39
2018-12-21T06:32:48.256Z,50.91
2018-12-21T06:33:25.736Z,51.22
2018-12-21T06:34:04.079Z,50.79
2018-12-21T06:34:41.512Z,51.68
2018-12-21T06:35:18.421Z,52.15
2018-12-21T06:35:55.316Z,52.58
2018-12-21T06:36:32.552Z,52.53
2018-12-21T06:37:10.308Z,52.33
2018-12-21T06:37:48.724Z,52.23
2018-12-21T06:38:26.241Z,53.10
2018-12-21T06:39:04.745Z,53.41
2018-12-21T06:39:42.188Z,52.55
2018-12-21T06:40:19.434Z,53.14
2018-12-21T06:40:56.800Z,53.22
2018-12-21T06:41:33.902Z,53.55
2018-12-21T06:42:11.839Z,52.77
2018-12-21T06:42:50.765Z,53.35
2018-12-21T06:43:28.675Z,54.24
2018-12-21T06:44:06.956Z,53.45
2018-12-21T06:44:45.689Z,54.19
2018-12-21T06:45:23.713Z,54.12
2018-12-21T06:46:02.047Z,53.96
2018-12-21T06:46:41.073Z,54.43
2018-12-21T06:47:17.933Z,53.92
2018-12-21T06:47:54.761Z,54.10
2018-12-21T06:48:32.656Z,53.91
2018-12-21T06:49:10.716Z,54.30
2018-12-21T06:49:47.630Z,54.04
2018-12-21T06:50:27.008Z,54.40
2018-12-21T06:51:04.175Z,54.62
2018-12-21T06:51:42.923Z,54.94
2018-12-21T06:52:19.732Z,54.97
2018-12-21T06:52:59.432Z,54.52
2018-12-21T06:53:37.704Z,54.74
2018-12-21T06:54:15.588Z,55.78
2018-12-21T06:54:52.426Z,55.43
2018-12-21T06:55:30.486Z,55.76
2018-12-21T06:56:09.317Z,55.55
2018-12-21T06:56:46.821Z,54.76
2018-12-21T06:57:24.172Z,54.84
2018-12-21T06:58:01.746Z,54.02
2018-12-21T06:58:40.247Z,53.48
2018-12-21T06:59:18.503Z,53.62
2018-12-21T06:59:55.932Z,53.89
2018-12-21T07:00:33.607Z,53.73
2018-12-21T07:01:11.248Z,54.30
2018-12-21T07:01:48.965Z,52.47
2018-12-21T07:02:27.072Z,51.71
2018-12-21T07:03:04.603Z,53.01
2018-12-21T07:03:42.828Z,51.96
2018-12-21T07:04:20.276Z,52.22
2018-12-21T07:04:57.694Z,52.60
2018-12-21T07:05:35.040Z,52.32
2018-12-21T07:06:12.564Z,52.88
2018-12-21T07:06:50.111Z,52.11
2018-12-21T07:07:27.160Z,52.67
2018-12-21T07:08:04.059Z,52.52
2018-12-21T07:08:41.124Z,53.26
2018-12-21T07:09:18.665Z,52.21
2018-12-21T07:09:57.361Z,51.71
2018-12-21T07:10:34.584Z,52.09
2018-12-21T07:11:12.129Z,51.91
2018-12-21T07:11:49.538Z,53.25
2018-12-21T07:12:27.135Z,53.21
2018-12-21T07:13:04.722Z,53.61
2018-12-21T07:13:43.010Z,53.14
2018-12-21T07:14:20.617Z,52.77
2018-12-21T07:14:59.137Z,52.20
2018-12-21T07:15:36.650Z,51.47
2018-12-21T07:16:13.915Z,51.04
2018-12-21T07:16:50.781Z,51.85
2018-12-21T07:17:27.743Z,52.45
2018-12-21T07:18:04.594Z,52.43
2018-12-21T07:18:41.618Z,53.10
2018-12-21T07:19:18.477Z,53.47
2018-12-21T07:19:55.444Z,52.51
2018-12-21T07:20:32.290Z,52.25
2018-12-21T07:21:09.116Z,53.28
2018-12-21T07:21:45.955Z,53.63
2018-12-21T07:22:22.841Z,52.93
2018-12-21T07:22:59.785Z,52.19
2018-12-21T07:23:36.621Z,52.58
2018-12-21T07:24:13.438Z,51.97
2018-12-21T07:24:50.395Z,52.77
2018-12-21T07:25:27.263Z,52.98
2018-12-21T07:26:04.257Z,52.59
2018-12-21T07:26:41.175Z,51.76
2018-12-21T07:27:18.405Z,52.22
2018-12-21T07:27:55.936Z,50.98
2018-12-21T07:28:33.339Z,51.28
2018-12-21T07:29:10.245Z,50.60
2018-12-21T07:29:49.194Z,51.26
2018-12-21T07:30:26.175Z,51.76
2018-12-21T07:31:04.178Z,51.42
2018-12-21T07:31:41.036Z,51.24
2018-12-21T07:32:18.725Z,51.28
2018-12-21T07:32:55.721Z,52.60
2018-12-21T07:33:32.773Z,52.54
2018-12-21T07:34:10.483Z,51.84
2018-12-21T07:34:49.203Z,51.81
2018-12-21T07:35:25.976Z,51.39
2018-12-21T07:36:08.338Z,50.86
2018-12-21T07:36:43.242Z,50.29
2018-12-21T07:37:20.085Z,50.66
2018-12-21T07:37:57.039Z,51.09
2018-12-21T07:38:34.916Z,51.90
2018-12-21T07:39:12.137Z,52.04
2018-12-21T07:39:49.142Z,51.87
2018-12-21T07:40:26.105Z,51.27
2018-12-21T07:41:03.020Z,51.28
2018-12-21T07:41:39.804Z,51.23
2018-12-21T07:42:16.673Z,51.27
2018-12-21T07:42:53.602Z,51.61
2018-12-21T07:43:30.353Z,51.92
2018-12-21T07:44:07.225Z,53.03
2018-12-21T07:44:44.303Z,53.08
2018-12-21T07:45:21.160Z,52.91
2018-12-21T07:45:58.080Z,52.88
2018-12-21T07:46:35.009Z,53.38
2018-12-21T07:47:11.828Z,53.37
2018-12-21T07:47:48.664Z,53.65
2018-12-21T07:48:25.539Z,53.24
2018-12-21T07:49:02.457Z,53.37
2018-12-21T07:49:39.246Z,54.13
2018-12-21T07:50:16.076Z,54.15
2018-12-21T07:50:52.973Z,52.93
2018-12-21T07:51:31.461Z,53.49
2018-12-21T07:52:09.329Z,53.36
2018-12-21T07:52:46.184Z,53.87
2018-12-21T07:53:23.229Z,53.58
2018-12-21T07:54:02.099Z,53.67
2018-12-21T07:54:38.868Z,54.13
2018-12-21T07:55:15.872Z,54.77
2018-12-21T07:55:52.943Z,54.57
2018-12-21T07:56:29.816Z,55.55
2018-12-21T07:57:06.792Z,55.71
2018-12-21T07:57:43.573Z,55.25
2018-12-21T07:58:21.581Z,55.54
2018-12-21T07:58:59.580Z,55.80
2018-12-21T07:59:36.461Z,54.73
2018-12-21T08:00:14.578Z,54.17
2018-12-21T08:00:51.650Z,53.15
2018-12-21T08:01:28.566Z,52.72
2018-12-21T08:02:05.936Z,52.69
2018-12-21T08:02:43.073Z,52.69
2018-12-21T08:03:19.972Z,51.45
2018-12-21T08:03:56.945Z,51.61
2018-12-21T08:04:34.755Z,51.03
2018-12-21T08:05:11.894Z,50.95
2018-12-21T08:05:50.158Z,51.05
2018-12-21T08:06:27.061Z,50.78
2018-12-21T08:07:03.924Z,51.00